Chlef Aboubakr Belkaid International Airport

DAOI · Chlef, Algeria

October 7, 2022

Time Code Weather Temp. Visibility Ceiling Wind METAR/SPECI
07:00
V
19 °C 10 km+ - 050° 050° 6 kt METAR DAOI 070600Z 05006KT 9999 SCT030 19/11 Q1022
06:00
V
20 °C 10 km+ - 060° 060° 6 kt METAR DAOI 070500Z 06006KT CAVOK 20/11 Q1022
05:00
V
20 °C 10 km+ - 050° 050° 4 kt METAR DAOI 070400Z 05004KT CAVOK 20/11 Q1022
04:00
V
20 °C 10 km+ - 030° 030° 5 kt METAR DAOI 070300Z 03005KT CAVOK 20/11 Q1022
03:00
V
20 °C 10 km+ - 040° 040° 5 kt METAR DAOI 070200Z 04005KT CAVOK 20/11 Q1022
02:00
V
21 °C 10 km+ - 060° 060° 6 kt METAR DAOI 070100Z 06006KT CAVOK 21/10 Q1022
01:00
V
21 °C 10 km+ - 050° 050° 7 kt METAR DAOI 070000Z 05007KT CAVOK 21/10 Q1023
00:00
V
22 °C 10 km+ - 060° 060° 4 kt METAR DAOI 062300Z 06004KT CAVOK 22/10 Q1023

October 6, 2022

Time Code Weather Temp. Visibility Ceiling Wind METAR/SPECI
23:00
V
22 °C 10 km+ - 050° 050° 8 kt METAR DAOI 062200Z 05008KT CAVOK 22/10 Q1023
22:00
V
23 °C 10 km+ - 050° 050° 7 kt METAR DAOI 062100Z 05007KT CAVOK 23/09 Q1023
21:00
V
24 °C 10 km+ - 060° 060° 7 kt METAR DAOI 062000Z 06007KT 9999 FEW020 SCT100 24/09 Q1023
20:00
V
24 °C 10 km+ - 050° 050° 7 kt METAR DAOI 061900Z 05007KT 9999 FEW020 SCT100 24/10 Q1023
19:00
V
25 °C 10 km+ - 060° 060° 6 kt METAR DAOI 061800Z 06006KT 9999 FEW020 SCT100 25/11 Q1022
18:00
V
27 °C 10 km+ - 090° 090° 7 kt METAR DAOI 061700Z 09007KT 9999 FEW020 SCT100 27/11 Q1022
17:00
V
28 °C 10 km+ - 060° 060° 5 kt METAR DAOI 061600Z 06005KT 9999 SCT020 SCT233 28/10 Q1021
16:00
V
27 °C 10 km+ - 020° 020° 4 kt METAR DAOI 061500Z 02004KT 9999 FEW026 SCT030 27/13 Q1022
15:00
V
27 °C 10 km+ - 060° 060° 8 kt METAR DAOI 061400Z 06008KT 9999 FEW026 SCT030 27/11 Q1022
14:00
V
28 °C 10 km+ - 080° 080° 6 kt METAR DAOI 061300Z 08006KT 9999 SCT030 SCT233 28/10 Q1023
13:00
V
27 °C 10 km+ - 080° 080° 4 kt METAR DAOI 061200Z 08004KT 9999 FEW030 SCT233 27/10 Q1024
12:00
V
26 °C 10 km+ - 080° 080° 8 kt METAR DAOI 061100Z 08008KT 9999 FEW030 SCT233 26/10 Q1024
11:00
V
24 °C 10 km+ - 060° 060° 10 kt METAR DAOI 061000Z 06010KT 9999 FEW030 SCT100 24/12 Q1025
10:00
V
22 °C 10 km+ - 060° 060° 4 kt METAR DAOI 060900Z 06004KT 9999 FEW030 SCT100 22/13 Q1025
09:00
V
20 °C 10 km+ - 070° 070° 4 kt METAR DAOI 060800Z 07004KT 9999 FEW030 20/14 Q1024
08:00
V
19 °C 10 km+ - 060° 060° 4 kt METAR DAOI 060700Z 06004KT 9999 FEW030 19/13 Q1024
07:00
V
19 °C 10 km+ - 080° 080° 4 kt METAR DAOI 060600Z 08004KT 9999 FEW030 19/13 Q1023
06:00
V
18 °C 10 km+ - 090° 090° 4 kt METAR DAOI 060500Z 09004KT 9999 FEW026 SCT233 18/12 Q1023
05:00
V
18 °C 10 km+ - 070° 070° 4 kt METAR DAOI 060400Z 07004KT 9999 FEW026 SCT233 18/13 Q1023
01:00
V
20 °C 10 km+ - 080° 080° 5 kt METAR DAOI 060000Z 08005KT 9999 SCT026 SCT233 20/12 Q1023
00:00
V
20 °C 10 km+ - Var Var 2 kt METAR DAOI 052300Z VRB02KT 9999 SCT026 SCT233 20/13 Q1024

October 5, 2022

Time Code Weather Temp. Visibility Ceiling Wind METAR/SPECI
23:00
V
20 °C 10 km+ - Var Var 2 kt METAR DAOI 052200Z VRB02KT 9999 SCT026 SCT233 20/12 Q1024
22:00
V
21 °C 10 km+ - 050° 050° 3 kt METAR DAOI 052100Z 05003KT 9999 SCT026 SCT233 21/12 Q1023
21:00
V
22 °C 10 km+ - 040° 040° 5 kt METAR DAOI 052000Z 04005KT 9999 SCT026 SCT233 22/12 Q1023
19:00
V
23 °C 10 km+ - 050° 050° 4 kt METAR DAOI 051800Z 05004KT 9999 SCT026 FEW030CB SCT233 23/13 Q1022
18:00
V
24 °C 10 km+ 23,300 ft 050° 050° 6 kt METAR DAOI 051700Z 05006KT 9999 SCT026 FEW030CB BKN233 24/13 Q1021
17:00
V
24 °C 10 km+ - 060° 060° 8 kt METAR DAOI 051600Z 06008KT 9999 SCT026 FEW030CB SCT233 24/14 Q1021
16:00
V
27 °C 10 km+ - 130° 130° 4 kt METAR DAOI 051500Z 13004KT 9999 FEW030 SCT233 27/13 Q1021
15:00
V
27 °C 8 km - Var Var 2 kt METAR DAOI 051400Z VRB02KT 8000 FEW026 SCT233 27/11 Q1021
14:00
V
28 °C 8 km - 230° 230° 4 kt METAR DAOI 051300Z 23004KT 8000 FEW026 SCT233 28/12 Q1021
13:00
V
28 °C 8 km - 220° 220° 3 kt METAR DAOI 051200Z 22003KT 8000 FEW026 SCT233 28/13 Q1022
12:00
V
26 °C 8 km 23,300 ft Var Var 2 kt METAR DAOI 051100Z VRB02KT 8000 FEW026 BKN233 26/13 Q1022
11:00
V
25 °C 8 km 23,300 ft Var Var 2 kt METAR DAOI 051000Z VRB02KT 8000 FEW026 BKN233 25/15 Q1022
10:00
V
23 °C 8 km 23,300 ft Var 000° 0 kt METAR DAOI 050900Z 00000KT 8000 FEW026 BKN233 23/16 Q1023
09:00
V
21 °C 10 km+ 23,300 ft 090° 090° 4 kt METAR DAOI 050800Z 09004KT 9999 FEW026 BKN233 21/17 Q1022
08:00
V
20 °C 10 km+ 23,300 ft 050° 050° 3 kt METAR DAOI 050700Z 05003KT 020V080 9999 FEW026 BKN233 20/17 Q1022
Older data

We and third parties follow your internet behavior on our website with cookies. If you continue, we assume you agree with our cookie policy. Learn more